Time Latitude Longitude Accuracy (66% radius in meters) Altitude (meters) Speed (km/hour) Bearing (degrees) Battery (%) GPS flag
07:08:29 57.204715 60.121401 12 331.17892944997 2.2262575626373 303.95404052734 87 1 delete
07:08:17 57.204694 60.121579 12 331.75917986319 0.95808416604996 267.85717773438 87 1 delete
07:08:10 57.204672 60.121567 16 331.89334991072 0.43775689601898 187.11622619629 87 1 delete
07:08:07 57.204684 60.121422 24 331.90606934748 0.49577066302299 187.75387573242 87 1 delete
07:08:01 57.204689 60.121373 24 331.89362133684 0.52650570869446 139.86979675293 87 1 delete
07:07:50 57.204675 60.121515 24 331.78756069055 0.38664039969444 134.66386413574 87 1 delete
07:07:49 57.204669 60.121555 24 331.784934991 0.034718357026577 278.66513061523 87 1 delete
07:07:44 57.204639 60.121916 24 331.6646603009 0.034718357026577 277.37808227539 87 1 delete
07:07:32 57.204632 60.122048 12 331.52247497212 0.0064777680672705 115.86458587646 87 1 delete
07:07:28 57.204637 60.122064 12 331.52032079305 0.49747237563133 115.86458587646 87 1 delete
07:07:25 57.204632 60.122052 12 331.51962447785 0.46665114164352 95.435050964355 87 1 delete
07:07:14 57.204626 60.122050 12 331.51888927482 0.53377985954285 103.13639831543 87 1 delete
07:06:43 57.204548 60.121852 48 331.32515852236 0 0 87 1 delete
07:06:27 57.204567 60.121830 16 330.63913639393 0.25104144215584 99.874252319336 87 1 delete
07:06:16 57.204585 60.121822 12 329.83931475138 0.34844148159027 99.874252319336 87 1 delete
07:06:11 57.204591 60.121839 12 329.73583458735 0.52317976951599 132.37715148926 87 1 delete
07:06:01 57.204613 60.121888 16 329.49068415541 1.0558758974075 133.0869140625 87 1 delete
07:05:51 57.204653 60.121804 16 329.28950368516 0.50267988443375 38.690464019775 87 1 delete
07:05:40 57.204645 60.121902 12 329.07343684693 0.021045293658972 6.9570446014404 87 1 delete
07:05:30 57.204623 60.121893 16 329.3749617624 0.0018827684689313 6.9570446014404 87 1 delete
07:05:28 57.204622 60.121898 24 329.37733144788 0.26538625359535 6.9570446014404 87 1 delete
06:59:36 57.204537 60.121787 24 329.36871299125 0 0 87 1 delete
06:59:34 57.204524 60.121816 24 329.36232738667 0.42174944281578 0.094065368175507 87 1 delete
06:59:33 57.204479 60.121870 24 329.36189477732 0.18082973361015 332.97644042969 87 1 delete
06:59:30 57.204421 60.121921 24 329.3615142166 0 0 87 1 delete
06:59:22 57.204448 60.121887 24 329.3657142521 0 0 87 1 delete
06:59:11 57.204506 60.121836 24 329.37690586 0 0 87 1 delete
06:59:07 57.204516 60.121834 32 329.38606549395 0 0 87 1 delete
06:59:00 57.204564 60.121844 48 329.39021665919 0 0 87 1 delete
06:58:40 57.204600 60.121723 32 329.39912886782 0 0 87 1 delete
06:58:29 57.204539 60.121856 32 329.39025802666 0 0 87 1 delete
06:58:23 57.204452 60.121904 32 329.39608507926 0 0 87 1 delete
06:58:19 57.204479 60.121938 32 329.41312682069 0 0 87 1 delete
06:58:13 57.204554 60.121940 32 329.44022088575 0 0 87 1 delete
06:58:06 57.204621 60.121826 24 329.43692306344 0 0 87 1 delete
06:57:58 57.204663 60.121837 32 329.4247640436 0.40884250402451 341.40191650391 87 1 delete
06:56:53 57.204875 60.121619 24 329.40596966902 0.51141935586929 279.5583190918 87 1 delete
06:56:51 57.204869 60.121670 24 329.40506652018 0 0 87 1 delete
06:56:43 57.204899 60.121643 24 329.29397286777 0 0 87 1 delete
06:56:27 57.204981 60.121555 16 328.01656122625 1.1335390806198 331.65264892578 87 1 delete
06:56:22 57.204960 60.121664 16 327.85809618988 0.69339996576309 332.94644165039 87 1 delete
06:56:21 57.204929 60.121663 16 327.82545193717 0.67081022262573 359.4040222168 87 1 delete
06:56:14 57.204860 60.121681 12 327.57452737924 0.44725441932678 89.491683959961 87 1 delete
06:56:10 57.204841 60.121622 6 327.48645971056 0.024744471535087 96.302597045898 87 1 delete
06:56:00 57.204848 60.121483 3 327.09205202039 1.0578860044479 95.082916259766 87 1 delete
06:55:50 57.204800 60.121324 4 326.61338721098 1.1398938894272 46.415065765381 87 1 delete
06:55:49 57.204793 60.121311 4 326.57018454594 1.1330400705338 40.956115722656 87 1 delete
06:55:42 57.204718 60.121228 6 326.27866988247 1.2597645521164 37.457294464111 87 1 delete
06:55:39 57.204687 60.121181 6 326.16194353876 1.2941460609436 46.145114898682 87 1 delete
06:55:36 57.204653 60.121115 4 326.05053584757 1.1885485649109 49.978012084961 87 1 delete